Time;durP1;ratioP1;P1;durP2;ratioP2;P2;SDS_P1;SDS_P2;PMS_P1;PMS_P2;Temp;Humidity;BMP_temperature;BMP_pressure;BME280_temperature;BME280_humidity;BME280_pressure;Samples;Min_cycle;Max_cycle;Signal;HPM_P1;HPM_P2
2023/01/21 00:00:52;;;;;;;10.73;9.60;;;;;;;16.85;41.30;102597.97;5026517;28;20034;-55
2023/01/21 00:03:17;;;;;;;11.50;10.10;;;;;;;16.85;41.38;102597.13;5026635;28;20032;-58
2023/01/21 00:05:42;;;;;;;11.35;10.23;;;;;;;16.85;41.05;102602.50;5026355;28;20036;-56
2023/01/21 00:08:07;;;;;;;11.07;9.23;;;;;;;16.84;41.26;102601.63;5026878;28;20446;-58
2023/01/21 00:10:33;;;;;;;11.85;9.73;;;;;;;16.83;41.12;102605.31;5026549;28;20037;-58
2023/01/21 00:12:58;;;;;;;11.93;10.00;;;;;;;16.82;41.32;102608.97;5026696;28;20026;-57
2023/01/21 00:15:23;;;;;;;11.02;9.50;;;;;;;16.82;41.11;102611.66;5026149;28;20026;-58
2023/01/21 00:17:51;;;;;;;11.07;9.90;;;;;;;16.77;41.13;102596.81;5026281;28;20034;-59
2023/01/21 00:20:16;;;;;;;14.43;9.18;;;;;;;16.81;41.19;102609.91;5026108;28;20041;-58
2023/01/21 00:22:42;;;;;;;10.55;8.65;;;;;;;16.81;41.15;102609.06;5025872;28;20032;-59
2023/01/21 00:25:07;;;;;;;11.40;9.40;;;;;;;16.79;41.32;102611.88;5026438;28;20034;-58
2023/01/21 00:27:33;;;;;;;12.48;10.00;;;;;;;16.78;41.29;102615.53;5026305;28;20120;-59
2023/01/21 00:29:58;;;;;;;10.57;9.10;;;;;;;16.79;41.07;102633.38;5026352;28;20433;-58
2023/01/21 00:32:23;;;;;;;9.48;8.50;;;;;;;16.77;41.09;102626.38;5026398;28;20034;-59
2023/01/21 00:34:48;;;;;;;12.35;9.48;;;;;;;16.76;41.10;102630.91;5025541;28;20089;-58
2023/01/21 00:37:13;;;;;;;10.40;8.25;;;;;;;16.77;41.01;102634.44;5026175;28;20029;-58
2023/01/21 00:39:41;;;;;;;10.60;9.13;;;;;;;16.73;41.19;102634.66;5026065;28;20026;-59
2023/01/21 00:42:08;;;;;;;10.02;9.02;;;;;;;16.72;41.24;102635.63;5026161;28;20026;-59
2023/01/21 00:44:33;;;;;;;9.70;8.65;;;;;;;16.73;41.31;102637.34;5025928;28;20029;-59
2023/01/21 00:46:58;;;;;;;10.30;8.75;;;;;;;16.73;41.03;102645.38;5026022;28;20028;-59
2023/01/21 00:49:24;;;;;;;9.25;8.27;;;;;;;16.68;41.28;102636.78;5025768;28;20029;-59
2023/01/21 00:51:49;;;;;;;10.02;8.63;;;;;;;16.72;41.05;102646.38;5025789;28;20026;-59
2023/01/21 00:54:14;;;;;;;9.57;8.45;;;;;;;16.71;41.07;102652.69;5026046;28;20033;-59
2023/01/21 00:56:39;;;;;;;10.95;8.77;;;;;;;16.68;41.27;102652.91;5025303;28;20025;-58
2023/01/21 00:59:05;;;;;;;10.93;8.65;;;;;;;16.71;41.16;102667.94;5026114;28;20018;-58
2023/01/21 01:01:33;;;;;;;11.10;8.70;;;;;;;16.70;41.12;102668.94;5025662;28;20056;-59
2023/01/21 01:03:58;;;;;;;10.23;8.10;;;;;;;16.69;41.30;102673.44;5025460;28;20022;-58
2023/01/21 01:06:24;;;;;;;10.95;8.63;;;;;;;16.68;41.26;102676.22;5025497;28;20383;-59
2023/01/21 01:08:49;;;;;;;10.90;8.32;;;;;;;16.68;41.24;102679.75;5025322;28;20513;-59
2023/01/21 01:11:15;;;;;;;10.07;8.00;;;;;;;16.67;41.18;102686.09;5025612;28;20076;-59
2023/01/21 01:13:41;;;;;;;9.90;7.68;;;;;;;16.66;41.13;102686.22;5025461;28;20060;-59
2023/01/21 01:16:07;;;;;;;10.05;8.15;;;;;;;16.64;41.11;102682.78;5025498;28;20018;-59
2023/01/21 01:18:33;;;;;;;10.45;8.52;;;;;;;16.66;41.21;102692.47;5025495;28;20072;-51
2023/01/21 01:20:59;;;;;;;9.80;8.30;;;;;;;16.66;41.23;102696.97;5019593;28;20455;-59
2023/01/21 01:23:25;;;;;;;9.50;8.23;;;;;;;16.64;41.14;102696.22;5005845;28;20022;-59
2023/01/21 01:26:01;;;;;;;9.27;7.68;;;;;;;16.66;41.06;102708.56;5005576;28;20129;-59
2023/01/21 01:28:26;;;;;;;8.50;7.38;;;;;;;16.66;41.18;102716.63;5005577;28;20026;-59
2023/01/21 01:30:52;;;;;;;9.10;7.43;;;;;;;16.65;41.03;102722.97;5005494;28;20046;-59
2023/01/21 01:33:20;;;;;;;9.60;7.93;;;;;;;16.63;41.28;102716.84;5006417;28;20058;-59
2023/01/21 01:35:47;;;;;;;8.68;7.35;;;;;;;16.63;41.28;102727.56;5024766;28;20045;-53
2023/01/21 01:38:14;;;;;;;9.75;7.72;;;;;;;16.63;41.11;102724.03;5024801;28;20022;-59
2023/01/21 01:40:39;;;;;;;7.65;6.85;;;;;;;16.59;41.31;102722.53;5007197;28;20044;-59
2023/01/21 01:43:13;;;;;;;7.57;6.78;;;;;;;16.63;41.33;102738.31;5025063;28;20034;-59
2023/01/21 01:45:38;;;;;;;9.13;7.32;;;;;;;16.59;41.25;102736.81;5007431;28;20052;-59
2023/01/21 01:48:05;;;;;;;8.63;6.95;;;;;;;16.61;41.24;102742.06;5025008;28;20022;-59
2023/01/21 01:50:33;;;;;;;8.05;7.03;;;;;;;16.61;41.25;102751.00;5025154;28;20042;-59
2023/01/21 01:52:59;;;;;;;8.90;7.55;;;;;;;16.59;41.17;102744.03;5007348;28;20105;-59
2023/01/21 01:55:26;;;;;;;8.60;6.90;;;;;;;16.60;41.12;102753.78;5007233;28;20037;-59
2023/01/21 01:57:53;;;;;;;8.43;7.07;;;;;;;16.60;41.23;102762.69;5024715;28;20026;-59
2023/01/21 02:00:19;;;;;;;8.02;6.95;;;;;;;16.60;41.26;102759.16;5007378;28;20037;-59
2023/01/21 02:03:43;;;;;;;7.90;6.70;;;;;;;16.57;41.16;102760.25;5024790;28;20082;-59
2023/01/21 02:05:32;;;;;;;8.63;6.80;;;;;;;16.59;41.19;102771.72;5004797;28;20053;-58
2023/01/21 02:07:57;;;;;;;7.57;6.47;;;;;;;16.59;41.11;102778.94;5005232;28;20030;-59
2023/01/21 02:10:23;;;;;;;7.75;6.68;;;;;;;16.59;41.10;102777.09;5007143;28;20032;-59
2023/01/21 02:12:48;;;;;;;7.63;6.03;;;;;;;16.59;41.13;102777.09;5024737;28;20045;-59
2023/01/21 02:15:13;;;;;;;7.32;6.50;;;;;;;16.58;41.20;102774.53;5007004;28;20053;-59
2023/01/21 02:18:23;;;;;;;7.20;6.50;;;;;;;16.58;41.20;102778.06;5024639;28;20030;-59
2023/01/21 02:20:54;;;;;;;8.02;6.78;;;;;;;16.57;41.01;102773.69;4993447;28;20038;-59
2023/01/21 02:23:35;;;;;;;6.53;5.75;;;;;;;16.57;41.04;102779.06;5024941;28;20026;-59
2023/01/21 02:26:09;;;;;;;7.40;5.90;;;;;;;16.56;41.20;102777.31;5006425;28;20060;-59
2023/01/21 02:29:05;;;;;;;8.70;6.70;;;;;;;16.57;41.12;102786.25;5007300;28;20101;-58
2023/01/21 02:31:45;;;;;;;7.90;6.22;;;;;;;16.55;41.07;102789.03;5024535;28;20032;-59
2023/01/21 02:34:36;;;;;;;7.43;5.95;;;;;;;16.55;41.09;102793.53;5006888;28;20033;-59
2023/01/21 02:37:11;;;;;;;6.93;5.75;;;;;;;16.50;40.97;102785.81;5024507;28;20026;-58
2023/01/21 02:39:51;;;;;;;7.85;5.90;;;;;;;16.54;41.11;102797.19;5006723;28;20036;-59
2023/01/21 02:42:46;;;;;;;6.40;5.80;;;;;;;16.53;41.33;102796.34;5024628;28;20080;-58
2023/01/21 02:45:27;;;;;;;7.30;6.22;;;;;;;16.52;41.16;102793.75;5015812;28;20038;-59
2023/01/21 02:48:04;;;;;;;7.22;5.97;;;;;;;16.53;41.06;102795.50;5007026;28;20037;-59
2023/01/21 02:50:32;;;;;;;6.38;5.63;;;;;;;16.54;41.05;102799.88;5026436;28;20085;-59
2023/01/21 02:52:59;;;;;;;7.93;5.43;;;;;;;16.54;41.08;102807.94;5010360;28;20041;-59
2023/01/21 02:55:31;;;;;;;8.00;5.88;;;;;;;16.53;41.20;102804.41;5028073;28;20029;-58
2023/01/21 02:58:02;;;;;;;10.88;7.28;;;;;;;16.46;41.16;102800.41;5028035;28;20033;-57
2023/01/21 03:01:08;;;;;;;7.30;5.70;;;;;;;16.52;41.04;102808.03;5027903;28;20026;-55
2023/01/21 03:03:39;;;;;;;7.95;6.50;;;;;;;16.52;41.13;102817.91;5001608;28;20132;-59
2023/01/21 03:06:25;;;;;;;6.00;5.40;;;;;;;16.51;40.99;102822.44;5027638;28;20137;-59
2023/01/21 03:08:54;;;;;;;6.03;5.07;;;;;;;16.51;41.09;102825.09;5010888;28;20089;-59
2023/01/21 03:11:20;;;;;;;8.40;6.03;;;;;;;16.50;41.11;102826.09;4993892;28;20030;-59
2023/01/21 03:17:00;;;;;;;6.03;5.32;;;;;;;16.49;41.04;102827.06;5027598;28;20076;-59
2023/01/21 03:19:45;;;;;;;5.80;5.10;;;;;;;16.48;40.97;102838.75;5010033;28;20022;-58
2023/01/21 03:22:14;;;;;;;6.47;5.38;;;;;;;16.47;41.08;102837.88;4994661;28;20073;-59
2023/01/21 03:24:42;;;;;;;5.93;5.22;;;;;;;16.47;41.03;102839.72;4990615;28;20091;-57
2023/01/21 03:27:08;;;;;;;7.95;5.38;;;;;;;16.48;41.08;102846.78;4990723;28;20038;-57
2023/01/21 03:29:34;;;;;;;6.75;5.57;;;;;;;16.47;41.16;102845.94;4990399;28;20038;-58
2023/01/21 03:32:03;;;;;;;7.03;5.30;;;;;;;16.47;41.13;102851.31;4990287;28;20068;-58
2023/01/21 03:34:29;;;;;;;;;;;;;;;16.47;41.02;102845.09;4990786;28;20086;-58
2023/01/21 03:37:39;;;;;;;5.50;5.00;;;;;;;16.46;40.96;102849.59;4990000;28;19916;-58
2023/01/21 03:40:14;;;;;;;6.13;5.25;;;;;;;16.45;40.92;102847.03;4912366;29;20060;-58
2023/01/21 03:42:41;;;;;;;6.68;5.57;;;;;;;16.42;41.14;102855.28;4912668;29;20216;-58
2023/01/21 03:45:07;;;;;;;6.45;4.75;;;;;;;16.41;41.08;102857.13;4936756;29;20099;-57
2023/01/21 03:47:35;;;;;;;5.47;4.82;;;;;;;16.40;41.00;102857.22;4931187;29;20055;-58
2023/01/21 03:50:07;;;;;;;5.68;4.93;;;;;;;16.43;41.15;102860.53;4947153;29;20039;-57
2023/01/21 03:52:33;;;;;;;6.88;5.47;;;;;;;16.42;40.95;102874.06;4931067;29;20039;-58
2023/01/21 03:54:58;;;;;;;5.60;4.93;;;;;;;16.41;40.88;102867.84;4946965;29;20032;-55
2023/01/21 03:57:23;;;;;;;5.95;5.32;;;;;;;16.41;41.14;102870.53;4931006;29;20031;-58
2023/01/21 03:59:49;;;;;;;5.68;4.95;;;;;;;16.41;40.96;102870.53;4946955;29;20031;-58
2023/01/21 04:02:19;;;;;;;5.30;4.80;;;;;;;16.41;40.90;102875.03;4946551;29;20091;-58
2023/01/21 04:04:45;;;;;;;7.18;5.55;;;;;;;16.40;40.79;102873.34;4948952;29;20034;-58
2023/01/21 04:07:10;;;;;;;5.55;4.80;;;;;;;16.40;40.69;102881.38;4946740;29;20055;-58
2023/01/21 04:09:35;;;;;;;6.78;4.72;;;;;;;16.40;40.95;102884.06;4946836;29;20071;-58
2023/01/21 04:12:01;;;;;;;5.22;4.55;;;;;;;16.39;41.13;102888.56;4946828;29;20031;-57
2023/01/21 04:14:26;;;;;;;5.95;5.35;;;;;;;16.39;40.93;102880.50;4952516;28;20027;-58
2023/01/21 04:16:51;;;;;;;4.97;4.47;;;;;;;16.38;41.10;102883.31;5026503;28;20017;-58
2023/01/21 04:19:17;;;;;;;7.32;5.55;;;;;;;16.37;40.89;102884.28;5026464;28;20030;-58
2023/01/21 04:21:42;;;;;;;5.05;4.53;;;;;;;16.38;40.96;102886.84;5014711;28;20053;-58
2023/01/21 04:24:07;;;;;;;6.00;4.72;;;;;;;16.37;40.95;102885.13;5006986;28;20105;-57
2023/01/21 04:26:32;;;;;;;5.07;4.57;;;;;;;16.37;41.08;102885.13;5006915;28;20027;-57
2023/01/21 04:28:58;;;;;;;6.20;4.90;;;;;;;16.38;40.89;102891.34;5006843;28;20033;-58
2023/01/21 04:31:23;;;;;;;4.30;3.90;;;;;;;16.36;41.00;102894.16;5006709;28;20121;-57
2023/01/21 04:33:48;;;;;;;6.10;5.00;;;;;;;16.37;40.87;102895.00;5015219;28;20025;-58
2023/01/21 04:36:13;;;;;;;7.20;6.07;;;;;;;16.36;40.95;102888.78;5006393;28;20022;-56
2023/01/21 04:38:39;;;;;;;5.90;4.78;;;;;;;16.37;40.97;102892.31;5006460;28;20392;-58
2023/01/21 04:41:04;;;;;;;6.32;5.05;;;;;;;16.36;40.87;102888.78;5005975;28;20054;-58
2023/01/21 04:43:29;;;;;;;5.00;4.50;;;;;;;16.36;40.94;102890.63;5006319;28;20113;-57
2023/01/21 04:45:55;;;;;;;6.15;5.13;;;;;;;16.36;41.01;102895.97;5021733;28;20034;-58
2023/01/21 04:48:20;;;;;;;5.53;4.50;;;;;;;16.35;40.96;102897.78;5025683;28;20463;-58
2023/01/21 04:50:45;;;;;;;6.68;5.53;;;;;;;16.35;40.89;102910.34;5025755;28;20084;-58
2023/01/21 04:53:11;;;;;;;5.07;4.40;;;;;;;16.34;40.84;102911.31;5025396;28;20037;-58
2023/01/21 04:55:36;;;;;;;7.05;5.28;;;;;;;16.34;40.96;102917.53;5025776;28;20057;-56
2023/01/21 04:58:01;;;;;;;6.50;5.45;;;;;;;16.33;40.88;102923.03;5025621;28;20386;-58
2023/01/21 05:00:26;;;;;;;6.18;5.03;;;;;;;16.33;41.05;102918.50;5025774;28;20080;-56
2023/01/21 05:02:52;;;;;;;5.75;4.65;;;;;;;16.31;40.88;102914.19;5025224;28;20029;-56
2023/01/21 05:05:18;;;;;;;5.68;4.97;;;;;;;16.32;40.81;102922.16;5025515;28;20021;-58
2023/01/21 05:07:43;;;;;;;6.38;5.15;;;;;;;16.31;40.86;102922.25;5025282;28;20050;-58
2023/01/21 05:10:14;;;;;;;5.35;4.70;;;;;;;16.32;40.67;102924.00;5025862;28;20021;-58
2023/01/21 05:12:39;;;;;;;6.20;5.18;;;;;;;16.32;41.10;102932.06;5024352;28;20025;-58
2023/01/21 05:15:05;;;;;;;5.65;4.88;;;;;;;16.31;40.79;102928.50;5025344;28;20040;-58
2023/01/21 05:17:31;;;;;;;7.15;5.45;;;;;;;16.31;40.79;102932.97;5025508;28;20033;-58
2023/01/21 05:19:56;;;;;;;6.50;5.53;;;;;;;16.32;40.78;102926.69;5025416;28;20386;-58
2023/01/21 05:22:21;;;;;;;6.13;5.32;;;;;;;16.32;40.74;102932.91;5008118;28;20037;-58
2023/01/21 05:24:46;;;;;;;5.65;4.82;;;;;;;16.31;40.86;102931.19;4988291;28;20034;-58
2023/01/21 05:27:12;;;;;;;5.75;5.13;;;;;;;16.32;40.77;102932.06;5005641;28;20022;-58
2023/01/21 05:29:37;;;;;;;5.88;5.07;;;;;;;16.29;40.82;102927.72;5005651;28;20089;-58
2023/01/21 05:32:02;;;;;;;7.07;5.57;;;;;;;16.29;40.83;102927.72;5005620;28;20083;-57
2023/01/21 05:34:28;;;;;;;5.90;5.15;;;;;;;16.29;40.85;102935.78;5005017;28;20041;-58
2023/01/21 05:36:53;;;;;;;7.07;5.50;;;;;;;16.28;40.81;102942.13;5005298;28;20037;-55
2023/01/21 05:39:18;;;;;;;6.25;5.28;;;;;;;16.29;40.89;102949.22;5005535;28;20112;-58
2023/01/21 05:41:43;;;;;;;7.53;5.72;;;;;;;16.29;40.76;102948.34;5005030;28;20063;-58
2023/01/21 05:44:09;;;;;;;6.15;5.18;;;;;;;16.28;40.79;102950.19;5008271;28;20030;-57
2023/01/21 05:46:34;;;;;;;6.82;5.25;;;;;;;16.28;40.80;102957.38;5024596;28;20041;-58
2023/01/21 05:48:59;;;;;;;6.65;5.00;;;;;;;16.29;40.71;102951.03;5024605;28;20030;-58
2023/01/21 05:51:25;;;;;;;5.97;5.13;;;;;;;16.28;40.76;102957.38;5024868;28;20030;-54
2023/01/21 05:53:50;;;;;;;5.53;4.88;;;;;;;16.27;40.92;102959.19;5024502;28;20042;-58
2023/01/21 05:56:15;;;;;;;5.68;5.00;;;;;;;16.28;40.89;102960.06;5024968;28;20025;-58
2023/01/21 05:58:40;;;;;;;5.40;4.88;;;;;;;16.25;40.94;102942.31;5024767;28;20030;-57
2023/01/21 06:01:06;;;;;;;6.50;5.25;;;;;;;16.21;40.59;102944.34;5024867;28;20033;-57
2023/01/21 06:03:31;;;;;;;6.65;5.45;;;;;;;16.26;40.82;102957.44;5024503;28;20418;-58
2023/01/21 06:05:56;;;;;;;7.63;5.68;;;;;;;16.26;40.81;102973.56;5020158;28;20038;-57
2023/01/21 06:08:22;;;;;;;5.93;4.95;;;;;;;16.26;41.07;102981.59;5019398;28;20032;-58
2023/01/21 06:10:47;;;;;;;8.20;5.05;;;;;;;16.27;41.03;102979.78;5019839;28;20014;-57
2023/01/21 06:13:14;;;;;;;7.28;5.43;;;;;;;16.28;41.15;102984.22;5021944;28;20034;-57
2023/01/21 06:15:39;;;;;;;9.45;5.82;;;;;;;16.28;41.16;102989.59;5017923;28;20095;-57
2023/01/21 06:18:04;;;;;;;7.32;5.43;;;;;;;16.28;41.22;102985.06;5024022;28;20471;-58
2023/01/21 06:20:30;;;;;;;6.57;5.13;;;;;;;16.22;41.24;102975.56;5024184;28;20040;-58
2023/01/21 06:23:00;;;;;;;6.30;5.40;;;;;;;16.25;41.68;102988.81;5020614;28;20044;-57
2023/01/21 06:25:26;;;;;;;8.82;5.53;;;;;;;16.31;41.48;103000.97;5028138;28;20040;-56
2023/01/21 06:27:54;;;;;;;6.20;5.30;;;;;;;16.32;41.64;103007.22;5027502;28;20025;-56
2023/01/21 06:30:19;;;;;;;11.60;6.27;;;;;;;16.32;42.13;103015.25;5028022;28;20022;-55
2023/01/21 06:32:44;;;;;;;5.80;5.07;;;;;;;16.34;41.90;103016.88;5027513;28;20317;-57
2023/01/21 06:35:10;;;;;;;7.55;6.05;;;;;;;16.35;41.88;103020.41;5027732;28;20057;-58
2023/01/21 06:37:35;;;;;;;7.32;5.32;;;;;;;16.35;41.86;103026.63;5027576;28;20014;-57
2023/01/21 06:40:00;;;;;;;9.48;5.32;;;;;;;16.36;41.89;103027.53;5027784;28;20052;-58
2023/01/21 06:42:26;;;;;;;6.28;5.18;;;;;;;16.37;41.91;103029.25;5027862;28;20045;-56
2023/01/21 06:44:51;;;;;;;8.32;5.25;;;;;;;16.38;41.91;103033.63;5027302;28;20033;-58
2023/01/21 06:47:16;;;;;;;7.07;5.50;;;;;;;16.39;42.06;103043.41;5026821;28;20033;-58
2023/01/21 06:49:42;;;;;;;5.93;5.32;;;;;;;16.39;42.13;103041.59;5027768;28;20077;-58
2023/01/21 06:52:08;;;;;;;7.05;5.70;;;;;;;16.41;42.21;103044.19;5027380;28;20029;-58
2023/01/21 06:54:33;;;;;;;10.05;6.88;;;;;;;16.41;42.30;103052.25;5027389;28;20048;-58
2023/01/21 06:56:58;;;;;;;7.28;5.60;;;;;;;16.39;42.23;103055.00;5027683;28;20065;-57
2023/01/21 06:59:24;;;;;;;6.88;5.57;;;;;;;16.42;42.18;103059.31;5027931;28;20073;-58
2023/01/21 07:01:49;;;;;;;6.03;5.28;;;;;;;16.39;42.04;103059.53;5026989;28;20718;-58
2023/01/21 07:04:14;;;;;;;6.97;6.13;;;;;;;16.41;42.26;103066.53;5024690;28;20025;-58
2023/01/21 07:06:39;;;;;;;7.88;5.80;;;;;;;16.41;42.10;103063.84;5024220;28;20042;-56
2023/01/21 07:09:06;;;;;;;6.80;5.90;;;;;;;16.42;41.88;103062.88;5027097;28;20029;-58
2023/01/21 07:11:32;;;;;;;7.70;6.53;;;;;;;16.42;42.00;103070.06;5009933;28;20064;-58
2023/01/21 07:13:57;;;;;;;7.70;5.80;;;;;;;16.42;42.06;103070.06;5026244;28;20030;-58
2023/01/21 07:16:22;;;;;;;6.40;5.35;;;;;;;16.43;42.37;103072.63;5026881;28;20028;-58
2023/01/21 07:18:48;;;;;;;7.22;5.75;;;;;;;16.43;42.30;103078.00;5027130;28;20089;-58
2023/01/21 07:21:13;;;;;;;7.15;6.10;;;;;;;16.42;41.97;103081.66;5020379;28;20483;-57
2023/01/21 07:23:38;;;;;;;9.07;6.43;;;;;;;16.42;42.04;103078.97;5025394;28;20034;-58
2023/01/21 07:26:04;;;;;;;8.35;6.07;;;;;;;16.41;42.19;103073.72;5026781;28;20037;-58
2023/01/21 07:28:29;;;;;;;9.70;6.22;;;;;;;16.37;42.27;103061.47;5022120;28;20510;-57
2023/01/21 07:30:58;;;;;;;7.70;5.90;;;;;;;16.42;42.33;103075.44;5026591;28;20030;-57
2023/01/21 07:33:23;;;;;;;8.25;5.65;;;;;;;16.45;42.12;103078.78;5027088;28;20030;-57
2023/01/21 07:35:48;;;;;;;6.93;6.22;;;;;;;16.49;41.89;103074.94;5025668;28;20037;-55
2023/01/21 07:38:14;;;;;;;8.07;5.82;;;;;;;16.47;41.78;103074.16;5026638;28;20042;-58
2023/01/21 07:40:39;;;;;;;9.50;6.45;;;;;;;16.55;41.57;103088.94;5026263;28;20102;-57
2023/01/21 07:43:04;;;;;;;6.68;5.30;;;;;;;16.54;41.89;103095.25;5025759;28;20026;-50
2023/01/21 07:45:29;;;;;;;8.38;5.75;;;;;;;16.54;41.74;103103.31;5027078;28;20072;-57
2023/01/21 07:47:55;;;;;;;7.90;5.57;;;;;;;16.53;41.81;103115.91;5026552;28;20037;-56
2023/01/21 07:50:20;;;;;;;7.38;6.07;;;;;;;16.54;41.68;103116.75;5026509;28;20037;-56
2023/01/21 07:52:45;;;;;;;7.55;6.72;;;;;;;16.54;41.86;103116.75;5026028;28;20379;-58
2023/01/21 07:55:11;;;;;;;6.82;5.53;;;;;;;16.53;42.25;103115.03;5026106;28;20032;-57
2023/01/21 07:57:36;;;;;;;9.63;5.57;;;;;;;16.54;42.58;103125.66;5026173;28;20444;-58
2023/01/21 08:00:02;;;;;;;11.85;6.25;;;;;;;16.57;42.20;103128.16;5026073;28;20045;-60
2023/01/21 08:02:27;;;;;;;9.02;5.82;;;;;;;16.57;42.41;103135.34;5026740;28;20025;-60
2023/01/21 08:04:52;;;;;;;8.27;6.30;;;;;;;16.57;42.24;103141.59;5026695;28;20467;-59
2023/01/21 08:07:17;;;;;;;7.88;5.35;;;;;;;16.60;42.04;103137.81;5019916;28;20026;-59
2023/01/21 08:09:43;;;;;;;7.05;5.75;;;;;;;16.61;42.12;103144.91;5015714;28;20033;-60
2023/01/21 08:12:08;;;;;;;5.63;5.05;;;;;;;16.61;42.16;103150.28;5027140;28;20425;-59
2023/01/21 08:14:34;;;;;;;6.00;5.40;;;;;;;16.62;42.08;103152.91;5009339;28;20038;-60
2023/01/21 08:16:59;;;;;;;5.70;5.03;;;;;;;16.64;42.12;103150.09;5025635;28;20028;-60
2023/01/21 08:19:25;;;;;;;10.35;5.90;;;;;;;16.65;42.18;103151.81;5026202;28;20038;-61
2023/01/21 08:21:50;;;;;;;6.68;5.10;;;;;;;16.65;42.02;103151.81;5025278;28;20034;-60
2023/01/21 08:24:16;;;;;;;7.03;5.35;;;;;;;16.65;42.20;103154.50;5026007;28;20034;-60
2023/01/21 08:26:41;;;;;;;10.20;6.78;;;;;;;16.64;41.82;103152.78;5025892;28;20065;-60
2023/01/21 08:29:06;;;;;;;6.65;5.38;;;;;;;16.65;42.03;103160.75;5025530;28;20364;-60
2023/01/21 08:31:31;;;;;;;6.80;5.38;;;;;;;16.66;41.75;103165.16;5026336;28;20068;-60
2023/01/21 08:33:57;;;;;;;6.78;5.90;;;;;;;16.66;41.73;103162.47;5008134;28;20026;-60
2023/01/21 08:36:23;;;;;;;6.75;5.30;;;;;;;16.68;41.57;103165.06;5025324;28;20022;-60
2023/01/21 08:38:53;;;;;;;7.00;5.68;;;;;;;16.68;41.52;103171.28;5025880;28;20059;-60
2023/01/21 08:41:18;;;;;;;7.07;5.88;;;;;;;16.67;41.67;103174.09;5025652;28;20506;-60
2023/01/21 08:43:43;;;;;;;6.32;5.50;;;;;;;16.66;41.53;103173.22;5026112;28;20093;-60
2023/01/21 08:46:08;;;;;;;7.50;5.85;;;;;;;16.66;41.40;103172.38;5025771;28;20048;-60
2023/01/21 08:48:36;;;;;;;7.45;4.82;;;;;;;16.61;41.28;103164.59;5024598;28;20101;-60
2023/01/21 08:51:01;;;;;;;8.30;5.93;;;;;;;16.67;41.36;103179.44;5025543;28;20137;-60
2023/01/21 08:53:27;;;;;;;7.05;5.75;;;;;;;16.67;41.17;103171.41;5025942;28;20034;-60
2023/01/21 08:55:52;;;;;;;6.85;5.50;;;;;;;16.67;41.39;103176.75;5025366;28;20030;-60
2023/01/21 08:58:17;;;;;;;6.32;5.20;;;;;;;16.66;41.25;103181.28;5026119;28;20072;-60
2023/01/21 09:00:43;;;;;;;5.85;5.03;;;;;;;16.67;41.29;103180.31;5025590;28;20053;-60
2023/01/21 09:03:09;;;;;;;5.80;5.20;;;;;;;16.69;41.04;103185.56;5025609;28;20021;-60
2023/01/21 09:05:34;;;;;;;5.88;4.97;;;;;;;16.68;41.09;103181.16;5025110;28;20034;-60
2023/01/21 09:07:59;;;;;;;8.00;5.60;;;;;;;16.66;41.04;103177.72;5025347;28;20032;-60
2023/01/21 09:13:09;;;;;;;6.03;5.10;;;;;;;16.64;41.09;103190.38;5025404;28;20052;-60
2023/01/21 09:15:41;;;;;;;6.15;5.15;;;;;;;16.68;41.06;103202.66;5025126;28;20479;-60
2023/01/21 09:18:07;;;;;;;5.57;4.97;;;;;;;16.67;41.11;103204.50;5024369;28;20023;-61
2023/01/21 09:20:32;;;;;;;5.85;4.93;;;;;;;16.66;40.94;103208.13;5023445;28;20105;-60
2023/01/21 09:22:57;;;;;;;5.45;4.88;;;;;;;16.65;40.97;103201.06;5018734;28;20038;-60
2023/01/21 09:25:23;;;;;;;10.82;5.55;;;;;;;16.64;40.98;103193.06;5025441;28;20088;-60
2023/01/21 09:27:48;;;;;;;6.47;5.40;;;;;;;16.66;41.01;103208.13;5025137;28;20041;-54
2023/01/21 09:30:14;;;;;;;5.60;5.03;;;;;;;16.66;40.90;103208.13;5025534;28;20037;-60
2023/01/21 09:32:39;;;;;;;5.72;4.82;;;;;;;16.66;40.87;103207.28;5025362;28;20121;-60
2023/01/21 09:35:05;;;;;;;6.55;5.40;;;;;;;16.68;40.72;103203.53;5024995;28;20069;-60
2023/01/21 09:37:33;;;;;;;5.50;4.82;;;;;;;16.68;40.79;103206.19;5025319;28;20057;-60
2023/01/21 09:39:59;;;;;;;7.23;5.00;;;;;;;16.69;41.00;103199.91;5025120;28;20053;-60
2023/01/21 09:42:26;;;;;;;6.18;5.50;;;;;;;16.69;40.77;103204.38;5025230;28;20278;-61
2023/01/21 09:44:53;;;;;;;6.10;5.50;;;;;;;16.64;40.77;103195.75;5006478;28;20022;-59
2023/01/21 09:47:18;;;;;;;6.10;5.50;;;;;;;16.67;40.82;103206.31;5006111;28;20036;-61
2023/01/21 09:50:20;;;;;;;6.35;5.68;;;;;;;16.68;40.84;103216.94;5024788;28;20029;-61
2023/01/21 09:52:51;;;;;;;5.90;4.78;;;;;;;16.69;40.70;103212.44;5003969;28;20041;-61
2023/01/21 09:55:33;;;;;;;5.40;4.90;;;;;;;16.69;40.84;103215.13;5024672;28;20022;-60
2023/01/21 09:58:13;;;;;;;6.07;5.30;;;;;;;16.64;40.89;103212.72;5024527;28;20387;-61
2023/01/21 10:01:00;;;;;;;6.55;5.63;;;;;;;16.68;40.69;103221.47;5006922;28;20089;-61
2023/01/21 10:03:37;;;;;;;6.72;5.28;;;;;;;16.63;40.65;103208.31;5024309;28;20024;-61
2023/01/21 10:06:15;;;;;;;6.20;5.60;;;;;;;16.64;40.76;103204.66;5006740;28;20056;-61
2023/01/21 10:08:56;;;;;;;7.35;6.25;;;;;;;16.70;40.59;103214.19;5007127;28;20056;-61
2023/01/21 10:11:33;;;;;;;6.32;5.68;;;;;;;16.71;40.59;103215.91;5024069;28;20037;-61
2023/01/21 10:14:07;;;;;;;6.32;5.45;;;;;;;16.72;40.57;103218.50;5024685;28;20049;-61
2023/01/21 10:16:53;;;;;;;5.70;5.10;;;;;;;16.72;40.56;103223.00;5005141;28;20031;-61
2023/01/21 10:19:27;;;;;;;5.88;5.22;;;;;;;16.76;40.70;103231.75;5006540;28;20033;-61
2023/01/21 10:22:05;;;;;;;7.82;5.82;;;;;;;16.74;40.51;103235.41;5000079;28;20093;-61
2023/01/21 10:24:36;;;;;;;7.90;5.88;;;;;;;16.75;40.71;103249.69;5024136;28;20034;-61
2023/01/21 10:27:01;;;;;;;6.80;6.05;;;;;;;16.74;40.89;103242.63;5024452;28;20029;-60
2023/01/21 10:29:27;;;;;;;7.93;5.75;;;;;;;16.75;40.83;103247.03;5024663;28;20077;-61
2023/01/21 10:32:03;;;;;;;6.78;5.70;;;;;;;16.70;40.76;103236.53;5024568;28;20470;-61
2023/01/21 10:34:30;;;;;;;8.20;5.60;;;;;;;16.78;40.93;103248.63;5006654;28;20033;-61
2023/01/21 10:37:03;;;;;;;6.57;5.55;;;;;;;16.77;40.90;103245.06;5024424;28;20086;-61
2023/01/21 10:39:53;;;;;;;7.03;5.30;;;;;;;16.79;40.92;103247.69;5006879;28;20049;-53
2023/01/21 10:42:40;;;;;;;6.55;5.43;;;;;;;16.81;40.82;103245.75;5021375;28;20076;-61
2023/01/21 10:45:20;;;;;;;5.90;5.30;;;;;;;16.81;40.82;103248.44;5006521;28;20057;-60
2023/01/21 10:48:00;;;;;;;6.72;5.78;;;;;;;16.82;40.79;103248.38;5006548;28;20510;-60
2023/01/21 10:50:50;;;;;;;5.78;5.07;;;;;;;16.86;40.70;103251.69;5006629;28;20081;-60
2023/01/21 10:53:40;;;;;;;6.35;5.50;;;;;;;16.86;40.49;103249.84;5024268;28;20086;-61
2023/01/21 10:56:38;;;;;;;6.32;5.60;;;;;;;16.87;40.71;103254.31;5024066;28;20022;-61
2023/01/21 10:59:21;;;;;;;6.70;5.50;;;;;;;16.87;40.67;103248.06;5006758;28;20022;-61
2023/01/21 11:02:07;;;;;;;8.30;5.30;;;;;;;16.87;40.61;103251.59;5006164;28;20064;-61
2023/01/21 11:04:32;;;;;;;5.97;5.30;;;;;;;16.87;40.38;103246.25;5023798;28;20032;-61
2023/01/21 11:07:04;;;;;;;5.70;5.20;;;;;;;16.89;40.67;103247.00;5023794;28;20050;-61
2023/01/21 11:09:36;;;;;;;7.63;5.93;;;;;;;16.88;40.71;103249.78;5005775;28;20029;-58
2023/01/21 11:12:02;;;;;;;6.38;5.18;;;;;;;16.88;40.47;103250.66;5008219;28;20425;-60
2023/01/21 11:14:27;;;;;;;5.88;5.07;;;;;;;16.85;40.64;103242.78;5027156;28;20064;-61
2023/01/21 11:16:53;;;;;;;5.85;5.07;;;;;;;16.88;40.52;103245.28;5026967;28;20026;-61
2023/01/21 11:19:25;;;;;;;7.25;5.53;;;;;;;16.89;40.60;103246.13;5027342;28;20048;-61
2023/01/21 11:22:05;;;;;;;6.22;5.63;;;;;;;16.88;40.48;103244.41;5014663;28;20033;-61
2023/01/21 11:24:51;;;;;;;7.63;5.68;;;;;;;16.88;40.45;103247.94;5007935;28;20043;-61
2023/01/21 11:27:37;;;;;;;6.53;5.45;;;;;;;16.90;40.28;103243.34;5007507;28;20090;-61
2023/01/21 11:30:04;;;;;;;7.15;5.47;;;;;;;16.91;40.22;103247.78;5007838;28;20034;-59
2023/01/21 11:32:30;;;;;;;6.28;5.00;;;;;;;16.93;40.22;103244.97;5008126;28;20061;-61
2023/01/21 11:35:07;;;;;;;6.55;5.43;;;;;;;16.95;40.18;103243.91;5007017;28;20135;-59
2023/01/21 11:37:32;;;;;;;7.50;5.40;;;;;;;16.93;40.40;103231.53;5007425;28;20034;-61